sensor_id;sensor_type;location;lat;lon;timestamp;pressure;altitude;pressure_sealevel;temperature;humidity
57374;BME280;43964;53.890;25.340;2023-03-20T00:04:07;1024.4;;;8.2;54.1
57374;BME280;43964;53.890;25.340;2023-03-20T00:08:38;1024.3;;;8.2;54.1
57374;BME280;43964;53.890;25.340;2023-03-20T00:13:44;1024.3;;;8.1;54.2
57374;BME280;43964;53.890;25.340;2023-03-20T00:18:40;1024.2;;;8.1;54.3
57374;BME280;43964;53.890;25.340;2023-03-20T00:23:38;1024.2;;;8;54.4
57374;BME280;43964;53.890;25.340;2023-03-20T00:28:56;1024;;;7.9;54.6
57374;BME280;43964;53.890;25.340;2023-03-20T00:34:11;1024;;;7.9;54.8
57374;BME280;43964;53.890;25.340;2023-03-20T00:38:47;1024;;;7.8;55
57374;BME280;43964;53.890;25.340;2023-03-20T00:44:23;1024;;;7.8;55.1
57374;BME280;43964;53.890;25.340;2023-03-20T00:49:02;1024;;;7.8;55.2
57374;BME280;43964;53.890;25.340;2023-03-20T00:53:46;1024;;;7.7;55.1
57374;BME280;43964;53.890;25.340;2023-03-20T00:58:48;1023.9;;;7.7;55.1
57374;BME280;43964;53.890;25.340;2023-03-20T01:04:22;1023.9;;;7.6;55.1
57374;BME280;43964;53.890;25.340;2023-03-20T01:08:38;1023.9;;;7.6;55.1
57374;BME280;43964;53.890;25.340;2023-03-20T01:14:05;1023.8;;;7.6;55.2
57374;BME280;43964;53.890;25.340;2023-03-20T01:19:14;1023.8;;;7.6;55.2
57374;BME280;43964;53.890;25.340;2023-03-20T01:23:54;1023.7;;;7.6;55.5
57374;BME280;43964;53.890;25.340;2023-03-20T01:28:56;1023.7;;;7.6;55.7
57374;BME280;43964;53.890;25.340;2023-03-20T01:34:13;1023.6;;;7.6;55.8
57374;BME280;43964;53.890;25.340;2023-03-20T01:39:31;1023.6;;;7.6;55.9
57374;BME280;43964;53.890;25.340;2023-03-20T01:44:23;1023.6;;;7.6;55.9
57374;BME280;43964;53.890;25.340;2023-03-20T01:48:55;1023.6;;;7.7;55.9
57374;BME280;43964;53.890;25.340;2023-03-20T01:54:23;1023.6;;;7.7;55.8
57374;BME280;43964;53.890;25.340;2023-03-20T01:58:40;1023.5;;;7.7;55.8
57374;BME280;43964;53.890;25.340;2023-03-20T02:03:54;1023.5;;;7.7;55.8
57374;BME280;43964;53.890;25.340;2023-03-20T02:08:47;1023.5;;;7.7;56.1
57374;BME280;43964;53.890;25.340;2023-03-20T02:14:22;1023.5;;;7.6;55.9
57374;BME280;43964;53.890;25.340;2023-03-20T02:19:02;1023.4;;;7.5;56.3
57374;BME280;43964;53.890;25.340;2023-03-20T02:24:03;1023.3;;;7.6;56.4
57374;BME280;43964;53.890;25.340;2023-03-20T02:29:59;1023.3;;;7.6;56.5
57374;BME280;43964;53.890;25.340;2023-03-20T02:33:59;1023.3;;;7.6;56.5
57374;BME280;43964;53.890;25.340;2023-03-20T02:38:44;1023.3;;;7.6;56.3
57374;BME280;43964;53.890;25.340;2023-03-20T02:44:04;1023.3;;;7.5;56.6
57374;BME280;43964;53.890;25.340;2023-03-20T02:49:27;1023.3;;;7.5;56.4
57374;BME280;43964;53.890;25.340;2023-03-20T02:54:17;1023.3;;;7.5;56.7
57374;BME280;43964;53.890;25.340;2023-03-20T02:59:05;1023.3;;;7.5;56.8
57374;BME280;43964;53.890;25.340;2023-03-20T03:03:47;1023.3;;;7.5;56.8
57374;BME280;43964;53.890;25.340;2023-03-20T03:09:05;1023.2;;;7.5;56.6
57374;BME280;43964;53.890;25.340;2023-03-20T03:13:54;1023.2;;;7.4;56.9
57374;BME280;43964;53.890;25.340;2023-03-20T03:18:57;1023.2;;;7.5;56.9
57374;BME280;43964;53.890;25.340;2023-03-20T03:23:56;1023.2;;;7.5;56.8
57374;BME280;43964;53.890;25.340;2023-03-20T03:28:47;1023.1;;;7.6;56.8
57374;BME280;43964;53.890;25.340;2023-03-20T03:34:22;1023.1;;;7.6;56.7
57374;BME280;43964;53.890;25.340;2023-03-20T03:39:12;1023;;;7.4;56.9
57374;BME280;43964;53.890;25.340;2023-03-20T03:43:40;1023;;;7.4;57.2
57374;BME280;43964;53.890;25.340;2023-03-20T03:49:23;1023;;;7.4;57.4
57374;BME280;43964;53.890;25.340;2023-03-20T03:53:40;1022.9;;;7.4;57.5
57374;BME280;43964;53.890;25.340;2023-03-20T03:58:53;1022.9;;;7.4;57.5
57374;BME280;43964;53.890;25.340;2023-03-20T04:04:06;1022.9;;;7.3;57.3
57374;BME280;43964;53.890;25.340;2023-03-20T04:09:23;1022.8;;;7.2;57.5
57374;BME280;43964;53.890;25.340;2023-03-20T04:13:45;1022.8;;;7.2;57.6
57374;BME280;43964;53.890;25.340;2023-03-20T04:19:04;1022.7;;;7.2;57.7
57374;BME280;43964;53.890;25.340;2023-03-20T04:24:14;1022.7;;;7.2;57.9
57374;BME280;43964;53.890;25.340;2023-03-20T04:29:10;1022.7;;;7.2;58
57374;BME280;43964;53.890;25.340;2023-03-20T04:33:56;1022.7;;;7.2;58.1
57374;BME280;43964;53.890;25.340;2023-03-20T04:38:46;1022.7;;;7.2;58.1
57374;BME280;43964;53.890;25.340;2023-03-20T04:44:22;1022.7;;;7.2;58.1
57374;BME280;43964;53.890;25.340;2023-03-20T04:49:25;1022.7;;;7.2;58.1
57374;BME280;43964;53.890;25.340;2023-03-20T04:53:40;1022.7;;;7.3;58.1
57374;BME280;43964;53.890;25.340;2023-03-20T04:59:06;1022.7;;;7.3;58.1
57374;BME280;43964;53.890;25.340;2023-03-20T05:04:05;1022.7;;;7.3;58.1
57374;BME280;43964;53.890;25.340;2023-03-20T05:08:40;1022.7;;;7.4;58
57374;BME280;43964;53.890;25.340;2023-03-20T05:13:55;1022.7;;;7.4;58.1
57374;BME280;43964;53.890;25.340;2023-03-20T05:19:27;1022.7;;;7.5;58.2
57374;BME280;43964;53.890;25.340;2023-03-20T05:23:56;1022.6;;;7.6;58.1
57374;BME280;43964;53.890;25.340;2023-03-20T05:28:51;1022.6;;;7.7;58.1
57374;BME280;43964;53.890;25.340;2023-03-20T05:34:27;1022.6;;;7.8;57.9
57374;BME280;43964;53.890;25.340;2023-03-20T05:39:06;1022.7;;;8;57.7
57374;BME280;43964;53.890;25.340;2023-03-20T05:43:59;1022.7;;;8.2;57.5
57374;BME280;43964;53.890;25.340;2023-03-20T05:48:57;1022.7;;;8.4;57.3
57374;BME280;43964;53.890;25.340;2023-03-20T05:54:25;1022.7;;;8.5;57.2
57374;BME280;43964;53.890;25.340;2023-03-20T05:59:10;1022.7;;;8.8;56.9
57374;BME280;43964;53.890;25.340;2023-03-20T06:04:05;1022.8;;;9;56.7
57374;BME280;43964;53.890;25.340;2023-03-20T06:08:55;1022.8;;;9.2;56.5
57374;BME280;43964;53.890;25.340;2023-03-20T06:14:07;1022.8;;;9.4;56.2
57374;BME280;43964;53.890;25.340;2023-03-20T06:18:49;1022.8;;;9.7;55.9
57374;BME280;43964;53.890;25.340;2023-03-20T06:23:47;1022.7;;;9.8;55.7
57374;BME280;43964;53.890;25.340;2023-03-20T06:28:51;1022.7;;;9.7;55.4
57374;BME280;43964;53.890;25.340;2023-03-20T06:33:41;1022.7;;;9.9;55.2
57374;BME280;43964;53.890;25.340;2023-03-20T06:39:27;1022.8;;;10;54.8
57374;BME280;43964;53.890;25.340;2023-03-20T06:43:43;1022.8;;;10;54.7
57374;BME280;43964;53.890;25.340;2023-03-20T06:48:47;1022.8;;;10.2;54.4
57374;BME280;43964;53.890;25.340;2023-03-20T06:54:25;1022.7;;;10.4;54.2
57374;BME280;43964;53.890;25.340;2023-03-20T06:59:05;1022.8;;;10.5;54.1
57374;BME280;43964;53.890;25.340;2023-03-20T07:03:47;1022.8;;;10.5;53.9
57374;BME280;43964;53.890;25.340;2023-03-20T07:09:09;1022.7;;;10.6;53.8
57374;BME280;43964;53.890;25.340;2023-03-20T07:14:27;1022.7;;;10.5;53.7
57374;BME280;43964;53.890;25.340;2023-03-20T07:19:23;1022.7;;;10.5;53.5
57374;BME280;43964;53.890;25.340;2023-03-20T07:24:27;1022.6;;;10.5;53.6
57374;BME280;43964;53.890;25.340;2023-03-20T07:29:27;1022.6;;;10.7;53.5
57374;BME280;43964;53.890;25.340;2023-03-20T07:49:11;1022.5;;;11.4;53
57374;BME280;43964;53.890;25.340;2023-03-20T07:53:43;1022.4;;;12.3;52
57374;BME280;43964;53.890;25.340;2023-03-20T07:58:49;1022.3;;;12.4;51.4
57374;BME280;43964;53.890;25.340;2023-03-20T08:04:09;1022.3;;;12.6;51
57374;BME280;43964;53.890;25.340;2023-03-20T08:08:43;1022.2;;;12.7;50.6
57374;BME280;43964;53.890;25.340;2023-03-20T08:13:41;1022.2;;;12.8;50.4
57374;BME280;43964;53.890;25.340;2023-03-20T08:18:55;1022.2;;;13;50.3
57374;BME280;43964;53.890;25.340;2023-03-20T08:24:27;1022.2;;;13.1;50.3
57374;BME280;43964;53.890;25.340;2023-03-20T08:28:49;1022.2;;;13.2;50
57374;BME280;43964;53.890;25.340;2023-03-20T08:33:41;1022.2;;;13.3;49.8
57374;BME280;43964;53.890;25.340;2023-03-20T08:39:27;1022.2;;;13.4;49.5
57374;BME280;43964;53.890;25.340;2023-03-20T08:43:41;1022.1;;;13.4;49
57374;BME280;43964;53.890;25.340;2023-03-20T08:48:41;1022.1;;;13.5;49.3
57374;BME280;43964;53.890;25.340;2023-03-20T08:54:05;1022.1;;;13.5;49
57374;BME280;43964;53.890;25.340;2023-03-20T08:59:25;1022.2;;;13.6;48.9
57374;BME280;43964;53.890;25.340;2023-03-20T09:04:19;1022.2;;;13.7;49
57374;BME280;43964;53.890;25.340;2023-03-20T09:09:05;1022.2;;;13.8;48.9
57374;BME280;43964;53.890;25.340;2023-03-20T09:13:55;1022.2;;;14;48.6
57374;BME280;43964;53.890;25.340;2023-03-20T09:19:09;1022.2;;;14;48.2
57374;BME280;43964;53.890;25.340;2023-03-20T09:23:41;1022.2;;;14;48
57374;BME280;43964;53.890;25.340;2023-03-20T09:28:55;1022.1;;;14.2;48
57374;BME280;43964;53.890;25.340;2023-03-20T09:33:41;1022.1;;;14.3;47.9
57374;BME280;43964;53.890;25.340;2023-03-20T09:38:49;1022.1;;;14.5;47.6
57374;BME280;43964;53.890;25.340;2023-03-20T09:44:33;1022;;;14.5;47.5
57374;BME280;43964;53.890;25.340;2023-03-20T09:49:15;1021.9;;;14.4;46.8
57374;BME280;43964;53.890;25.340;2023-03-20T09:54:09;1021.9;;;14.2;46.6
57374;BME280;43964;53.890;25.340;2023-03-20T09:59:27;1021.8;;;14.1;46.5
57374;BME280;43964;53.890;25.340;2023-03-20T10:04:07;1021.8;;;14;46.6
57374;BME280;43964;53.890;25.340;2023-03-20T10:08:57;1021.8;;;13.9;46.5
57374;BME280;43964;53.890;25.340;2023-03-20T10:14:16;1021.8;;;13.9;46.8
57374;BME280;43964;53.890;25.340;2023-03-20T10:19:29;1021.8;;;13.9;46.7
57374;BME280;43964;53.890;25.340;2023-03-20T10:24:21;1021.8;;;13.9;46.8
57374;BME280;43964;53.890;25.340;2023-03-20T10:29:31;1021.8;;;13.9;46.8
57374;BME280;43964;53.890;25.340;2023-03-20T10:34:31;1021.6;;;13.9;46.5
57374;BME280;43964;53.890;25.340;2023-03-20T10:39:14;1021.6;;;14;46.6
57374;BME280;43964;53.890;25.340;2023-03-20T10:43:41;1021.6;;;14.4;46.5
57374;BME280;43964;53.890;25.340;2023-03-20T10:49:13;1021.5;;;14.6;46.2
57374;BME280;43964;53.890;25.340;2023-03-20T10:54:11;1021.5;;;14.7;45.9
57374;BME280;43964;53.890;25.340;2023-03-20T10:59:21;1021.4;;;14.9;45.8
57374;BME280;43964;53.890;25.340;2023-03-20T11:04:17;1021.4;;;15.1;45.6
57374;BME280;43964;53.890;25.340;2023-03-20T11:09:29;1021.3;;;15.3;45.3
57374;BME280;43964;53.890;25.340;2023-03-20T11:14:08;1021.3;;;15.6;44.6
57374;BME280;43964;53.890;25.340;2023-03-20T11:18:49;1021.2;;;15.7;44.3
57374;BME280;43964;53.890;25.340;2023-03-20T11:23:55;1021.2;;;15.7;44.1
57374;BME280;43964;53.890;25.340;2023-03-20T11:29:07;1021.1;;;15.6;44.5
57374;BME280;43964;53.890;25.340;2023-03-20T11:34:21;1021.1;;;15.8;44.4
57374;BME280;43964;53.890;25.340;2023-03-20T11:39:14;1021;;;16.1;44.3
57374;BME280;43964;53.890;25.340;2023-03-20T11:44:21;1020.9;;;16.1;44.2
57374;BME280;43964;53.890;25.340;2023-03-20T11:49:02;1020.9;;;16.2;44
57374;BME280;43964;53.890;25.340;2023-03-20T11:54:27;1020.9;;;16.2;43.9
57374;BME280;43964;53.890;25.340;2023-03-20T11:58:45;1020.8;;;16.1;43.9
57374;BME280;43964;53.890;25.340;2023-03-20T12:03:42;1020.7;;;16.1;43.7
57374;BME280;43964;53.890;25.340;2023-03-20T12:09:25;1020.7;;;15.9;43.7
57374;BME280;43964;53.890;25.340;2023-03-20T12:14:31;1020.7;;;15.8;44
57374;BME280;43964;53.890;25.340;2023-03-20T12:19:29;1020.6;;;16;44
57374;BME280;43964;53.890;25.340;2023-03-20T12:24:10;1020.6;;;16.3;43.8
57374;BME280;43964;53.890;25.340;2023-03-20T12:29:22;1020.5;;;16.5;43.7
57374;BME280;43964;53.890;25.340;2023-03-20T12:34:16;1020.5;;;16.6;43.5
57374;BME280;43964;53.890;25.340;2023-03-20T12:38:51;1020.4;;;16.6;43.2
57374;BME280;43964;53.890;25.340;2023-03-20T12:44:00;1020.3;;;16.7;43.2
57374;BME280;43964;53.890;25.340;2023-03-20T12:49:32;1020.2;;;16.6;42.8
57374;BME280;43964;53.890;25.340;2023-03-20T12:54:18;1020.2;;;16.5;42.3
57374;BME280;43964;53.890;25.340;2023-03-20T12:58:52;1020.1;;;16.4;42.2
57374;BME280;43964;53.890;25.340;2023-03-20T13:09:18;1020;;;16.2;42.6
57374;BME280;43964;53.890;25.340;2023-03-20T13:13:51;1020;;;16.1;42.6
57374;BME280;43964;53.890;25.340;2023-03-20T13:19:13;1019.9;;;16.1;42.4
57374;BME280;43964;53.890;25.340;2023-03-20T13:24:32;1019.8;;;16.2;42.3
57374;BME280;43964;53.890;25.340;2023-03-20T13:28:59;1019.8;;;16.3;42.3
57374;BME280;43964;53.890;25.340;2023-03-20T13:34:31;1019.8;;;16.3;41.8
57374;BME280;43964;53.890;25.340;2023-03-20T13:39:30;1019.7;;;16.4;41.7
57374;BME280;43964;53.890;25.340;2023-03-20T13:43:54;1019.7;;;16.4;41.9
57374;BME280;43964;53.890;25.340;2023-03-20T13:48:41;1019.6;;;16.3;42
57374;BME280;43964;53.890;25.340;2023-03-20T13:54:20;1019.6;;;16.2;42.1
57374;BME280;43964;53.890;25.340;2023-03-20T13:59:15;1019.5;;;16.2;41.9
57374;BME280;43964;53.890;25.340;2023-03-20T14:04:22;1019.5;;;16.1;41.8
57374;BME280;43964;53.890;25.340;2023-03-20T14:08:42;1019.4;;;15.9;41.7
57374;BME280;43964;53.890;25.340;2023-03-20T14:14:29;1019.4;;;15.7;41.5
57374;BME280;43964;53.890;25.340;2023-03-20T14:19:14;1019.3;;;15.6;41.6
57374;BME280;43964;53.890;25.340;2023-03-20T14:23:42;1019.3;;;15.6;41.9
57374;BME280;43964;53.890;25.340;2023-03-20T14:28:43;1019.3;;;15.7;41.9
57374;BME280;43964;53.890;25.340;2023-03-20T14:34:27;1019.2;;;15.8;41.8
57374;BME280;43964;53.890;25.340;2023-03-20T14:38:43;1019.2;;;15.8;41.7
57374;BME280;43964;53.890;25.340;2023-03-20T14:44:30;1019.2;;;15.9;41.6
57374;BME280;43964;53.890;25.340;2023-03-20T14:49:44;1019.2;;;15.8;41.5
57374;BME280;43964;53.890;25.340;2023-03-20T14:53:55;1019.1;;;15.8;41.4
57374;BME280;43964;53.890;25.340;2023-03-20T14:59:25;1019.1;;;15.8;41.5
57374;BME280;43964;53.890;25.340;2023-03-20T15:03:41;1019.1;;;15.8;41.5
57374;BME280;43964;53.890;25.340;2023-03-20T15:08:41;1019.1;;;15.7;41.6
57374;BME280;43964;53.890;25.340;2023-03-20T15:14:19;1019.1;;;15.6;41.7
57374;BME280;43964;53.890;25.340;2023-03-20T15:19:27;1019.1;;;15.6;41.8
57374;BME280;43964;53.890;25.340;2023-03-20T15:23:41;1019.1;;;15.4;41.9
57374;BME280;43964;53.890;25.340;2023-03-20T15:29:09;1019;;;15.4;42
57374;BME280;43964;53.890;25.340;2023-03-20T15:34:20;1019;;;15.4;42.1
57374;BME280;43964;53.890;25.340;2023-03-20T15:39:14;1019;;;15.4;42.3
57374;BME280;43964;53.890;25.340;2023-03-20T15:44:11;1019;;;15.3;42.4
57374;BME280;43964;53.890;25.340;2023-03-20T15:48:57;1019;;;15.2;42.6
57374;BME280;43964;53.890;25.340;2023-03-20T15:54:27;1019;;;15.1;42.8
57374;BME280;43964;53.890;25.340;2023-03-20T15:59:28;1019;;;14.8;43
57374;BME280;43964;53.890;25.340;2023-03-20T16:03:57;1019;;;14.6;43.2
57374;BME280;43964;53.890;25.340;2023-03-20T16:09:11;1019;;;14.4;43.4
57374;BME280;43964;53.890;25.340;2023-03-20T16:14:09;1019;;;14.4;43.4
57374;BME280;43964;53.890;25.340;2023-03-20T16:18:57;1019;;;14.3;43.5
57374;BME280;43964;53.890;25.340;2023-03-20T16:24:27;1019.1;;;14.2;43.7
57374;BME280;43964;53.890;25.340;2023-03-20T16:29:27;1019;;;14.2;43.8
57374;BME280;43964;53.890;25.340;2023-03-20T16:34:05;1019;;;14.2;43.9
57374;BME280;43964;53.890;25.340;2023-03-20T16:39:05;1019;;;14.1;44
57374;BME280;43964;53.890;25.340;2023-03-20T16:44:28;1019;;;14.1;44.1
57374;BME280;43964;53.890;25.340;2023-03-20T16:49:31;1019;;;13.9;44.3
57374;BME280;43964;53.890;25.340;2023-03-20T16:54:03;1019;;;13.8;44.6
57374;BME280;43964;53.890;25.340;2023-03-20T16:59:07;1019;;;13.7;44.8
57374;BME280;43964;53.890;25.340;2023-03-20T17:04:26;1019.1;;;13.7;44.7
57374;BME280;43964;53.890;25.340;2023-03-20T17:09:21;1019;;;13.7;44.7
57374;BME280;43964;53.890;25.340;2023-03-20T17:13:41;1019;;;13.7;44.7
57374;BME280;43964;53.890;25.340;2023-03-20T17:19:00;1019;;;13.7;44.8
57374;BME280;43964;53.890;25.340;2023-03-20T17:24:29;1018.9;;;13.7;44.8
57374;BME280;43964;53.890;25.340;2023-03-20T17:28:41;1018.9;;;13.7;44.9
57374;BME280;43964;53.890;25.340;2023-03-20T17:34:08;1018.9;;;13.6;44.9
57374;BME280;43964;53.890;25.340;2023-03-20T17:39:03;1018.9;;;13.6;45
57374;BME280;43964;53.890;25.340;2023-03-20T17:43:51;1018.8;;;13.6;45.3
57374;BME280;43964;53.890;25.340;2023-03-20T17:49:27;1018.8;;;13.5;45.5
57374;BME280;43964;53.890;25.340;2023-03-20T17:54:13;1018.8;;;13.5;45.3
57374;BME280;43964;53.890;25.340;2023-03-20T17:58:41;1018.8;;;13.4;45.4
57374;BME280;43964;53.890;25.340;2023-03-20T18:04:27;1018.7;;;13.3;45.8
57374;BME280;43964;53.890;25.340;2023-03-20T18:08:41;1018.7;;;13.3;45.9
57374;BME280;43964;53.890;25.340;2023-03-20T18:13:41;1018.7;;;13.3;46
57374;BME280;43964;53.890;25.340;2023-03-20T18:19:28;1018.7;;;13.3;46.2
57374;BME280;43964;53.890;25.340;2023-03-20T18:24:25;1018.7;;;13.2;46.3
57374;BME280;43964;53.890;25.340;2023-03-20T18:29:00;1018.7;;;13.1;46.3
57374;BME280;43964;53.890;25.340;2023-03-20T18:34:23;1018.6;;;13.1;46.4
57374;BME280;43964;53.890;25.340;2023-03-20T18:39:27;1018.5;;;13;46.6
57374;BME280;43964;53.890;25.340;2023-03-20T18:44:13;1018.5;;;12.9;46.9
57374;BME280;43964;53.890;25.340;2023-03-20T18:48:51;1018.5;;;12.9;47
57374;BME280;43964;53.890;25.340;2023-03-20T18:54:13;1018.5;;;12.8;47
57374;BME280;43964;53.890;25.340;2023-03-20T18:59:10;1018.5;;;12.8;47.1
57374;BME280;43964;53.890;25.340;2023-03-20T19:04:19;1018.5;;;12.8;47.2
57374;BME280;43964;53.890;25.340;2023-03-20T19:08:57;1018.4;;;12.8;47.5
57374;BME280;43964;53.890;25.340;2023-03-20T19:14:27;1018.5;;;12.8;47.5
57374;BME280;43964;53.890;25.340;2023-03-20T19:19:09;1018.5;;;12.7;47.7
57374;BME280;43964;53.890;25.340;2023-03-20T19:24:07;1018.5;;;12.7;47.9
57374;BME280;43964;53.890;25.340;2023-03-20T19:29:09;1018.4;;;12.7;48
57374;BME280;43964;53.890;25.340;2023-03-20T19:34:19;1018.4;;;12.6;48.5
57374;BME280;43964;53.890;25.340;2023-03-20T19:38:41;1018.4;;;12.5;48.8
57374;BME280;43964;53.890;25.340;2023-03-20T19:44:13;1018.4;;;12.6;48.9
57374;BME280;43964;53.890;25.340;2023-03-20T19:49:16;1018.4;;;12.6;49.1
57374;BME280;43964;53.890;25.340;2023-03-20T19:53:51;1018.4;;;12.6;49.2
57374;BME280;43964;53.890;25.340;2023-03-20T19:59:29;1018.4;;;12.5;49.3
57374;BME280;43964;53.890;25.340;2023-03-20T20:04:13;1018.3;;;12.4;49.6
57374;BME280;43964;53.890;25.340;2023-03-20T20:08:51;1018.3;;;12.3;49.8
57374;BME280;43964;53.890;25.340;2023-03-20T20:14:19;1018.3;;;12.4;49.9
57374;BME280;43964;53.890;25.340;2023-03-20T20:19:27;1018.3;;;12.5;50
57374;BME280;43964;53.890;25.340;2023-03-20T20:23:41;1018.3;;;12.5;50.2
57374;BME280;43964;53.890;25.340;2023-03-20T20:29:05;1018.3;;;12.5;50.7
57374;BME280;43964;53.890;25.340;2023-03-20T20:34:21;1018.3;;;12.5;51.1
57374;BME280;43964;53.890;25.340;2023-03-20T20:39:15;1018.2;;;12.5;51.3
57374;BME280;43964;53.890;25.340;2023-03-20T20:44:03;1018.2;;;12.5;51.5
57374;BME280;43964;53.890;25.340;2023-03-20T20:48:51;1018.2;;;12.4;51.3
57374;BME280;43964;53.890;25.340;2023-03-20T20:54:29;1018.2;;;12.4;51.4
57374;BME280;43964;53.890;25.340;2023-03-20T20:59:29;1018.2;;;12.3;51.9
57374;BME280;43964;53.890;25.340;2023-03-20T21:03:41;1018.2;;;12.3;52.2
57374;BME280;43964;53.890;25.340;2023-03-20T21:09:29;1018.1;;;12.2;52.5
57374;BME280;43964;53.890;25.340;2023-03-20T21:14:07;1018.1;;;12.1;53.2
57374;BME280;43964;53.890;25.340;2023-03-20T21:18:41;1018.1;;;12.1;53.5
57374;BME280;43964;53.890;25.340;2023-03-20T21:24:11;1018.1;;;12.1;53.8
57374;BME280;43964;53.890;25.340;2023-03-20T21:29:29;1018.1;;;12.1;54
57374;BME280;43964;53.890;25.340;2023-03-20T21:34:07;1018.1;;;12.2;54
57374;BME280;43964;53.890;25.340;2023-03-20T21:39:27;1018.1;;;12.2;54.1
57374;BME280;43964;53.890;25.340;2023-03-20T21:44:23;1018.1;;;12.2;54.3
57374;BME280;43964;53.890;25.340;2023-03-20T21:49:15;1018.2;;;12.1;54.6
57374;BME280;43964;53.890;25.340;2023-03-20T21:53:47;1018.2;;;12;55.3
57374;BME280;43964;53.890;25.340;2023-03-20T21:58:49;1018.1;;;12;55.6
57374;BME280;43964;53.890;25.340;2023-03-20T22:04:11;1018.1;;;12;55.8
57374;BME280;43964;53.890;25.340;2023-03-20T22:09:19;1018.1;;;11.9;56.1
57374;BME280;43964;53.890;25.340;2023-03-20T22:13:47;1018.2;;;11.9;56.4
57374;BME280;43964;53.890;25.340;2023-03-20T22:19:29;1018.2;;;11.9;56.6
57374;BME280;43964;53.890;25.340;2023-03-20T22:24:11;1018.1;;;11.9;57.5
57374;BME280;43964;53.890;25.340;2023-03-20T22:28:41;1018.1;;;11.9;57.9
57374;BME280;43964;53.890;25.340;2023-03-20T22:33:57;1018;;;11.9;58.3
57374;BME280;43964;53.890;25.340;2023-03-20T22:38:59;1018;;;11.9;58.6
57374;BME280;43964;53.890;25.340;2023-03-20T22:43:41;1018;;;11.8;58.1
57374;BME280;43964;53.890;25.340;2023-03-20T22:49:15;1018;;;11.7;59.3
57374;BME280;43964;53.890;25.340;2023-03-20T22:54:09;1018;;;11.7;59.6
57374;BME280;43964;53.890;25.340;2023-03-20T22:59:29;1018.1;;;11.8;59.8
57374;BME280;43964;53.890;25.340;2023-03-20T23:04:27;1018.1;;;11.8;59.7
57374;BME280;43964;53.890;25.340;2023-03-20T23:09:07;1018.1;;;11.8;59.7
57374;BME280;43964;53.890;25.340;2023-03-20T23:13:51;1018.1;;;11.7;59.8
57374;BME280;43964;53.890;25.340;2023-03-20T23:19:21;1018.1;;;11.7;59.9
57374;BME280;43964;53.890;25.340;2023-03-20T23:24:29;1018.1;;;11.6;60
57374;BME280;43964;53.890;25.340;2023-03-20T23:28:48;1018.1;;;11.6;60
57374;BME280;43964;53.890;25.340;2023-03-20T23:34:27;1018.1;;;11.6;60
57374;BME280;43964;53.890;25.340;2023-03-20T23:39:21;1018.1;;;11.5;60
57374;BME280;43964;53.890;25.340;2023-03-20T23:44:15;1018.1;;;11.5;60.1
57374;BME280;43964;53.890;25.340;2023-03-20T23:49:03;1018;;;11.5;60.4
57374;BME280;43964;53.890;25.340;2023-03-20T23:54:29;1017.9;;;11.4;60.6
57374;BME280;43964;53.890;25.340;2023-03-20T23:58:59;1017.9;;;11.4;60.7
